Time;durP1;ratioP1;P1;durP2;ratioP2;P2;SDS_P1;SDS_P2;PMS_P1;PMS_P2;Temp;Humidity;BMP_temperature;BMP_pressure;BME280_temperature;BME280_humidity;BME280_pressure;Samples;Min_cycle;Max_cycle;Signal;HPM_P1;HPM_P2
2022/01/21 00:01:06;;;;;;;3.75;1.23;;;0.50;99.90;;;;;;5036495;28;20522;-65
2022/01/21 00:03:32;;;;;;;7.72;1.27;;;0.50;99.90;;;;;;5031612;28;20034;-64
2022/01/21 00:05:58;;;;;;;8.43;1.20;;;0.50;99.90;;;;;;5031870;28;20182;-66
2022/01/21 00:08:24;;;;;;;11.00;1.70;;;0.50;99.90;;;;;;5034107;28;20772;-64
2022/01/21 00:10:51;;;;;;;10.27;1.52;;;0.50;99.90;;;;;;5042101;28;20041;-64
2022/01/21 00:13:33;;;;;;;8.38;1.70;;;0.60;99.90;;;;;;5033058;28;20063;-64
2022/01/21 00:16:12;;;;;;;7.97;1.73;;;0.60;99.90;;;;;;5041185;28;20041;-64
2022/01/21 00:18:40;;;;;;;16.33;2.17;;;0.50;99.90;;;;;;5043698;28;20527;-65
2022/01/21 00:32:06;;;;;;;16.92;2.60;;;0.80;99.90;;;;;;5032134;28;20052;-65
2022/01/21 00:34:32;;;;;;;8.52;2.25;;;0.90;99.90;;;;;;5034383;28;20028;-65
2022/01/21 00:36:58;;;;;;;14.60;2.13;;;1.00;99.90;;;;;;5043221;28;20180;-64
2022/01/21 00:39:27;;;;;;;14.02;2.35;;;1.10;99.90;;;;;;5031626;28;20108;-64
2022/01/21 00:44:59;;;;;;;15.10;2.15;;;1.10;99.90;;;;;;4992399;28;20145;-65
2022/01/21 00:47:26;;;;;;;14.07;2.40;;;1.20;99.90;;;;;;5010146;28;20143;-65
2022/01/21 00:49:52;;;;;;;14.82;2.80;;;1.20;99.90;;;;;;5013667;28;20401;-65
2022/01/21 00:52:17;;;;;;;12.27;2.20;;;1.20;99.90;;;;;;5041104;28;20041;-65
2022/01/21 00:54:43;;;;;;;19.38;2.33;;;1.30;99.90;;;;;;5034919;28;20061;-65
2022/01/21 00:57:09;;;;;;;11.20;2.05;;;1.30;99.90;;;;;;5031209;28;20497;-65
2022/01/21 00:59:35;;;;;;;6.57;1.58;;;1.40;99.90;;;;;;5039274;28;20172;-65
2022/01/21 01:02:00;;;;;;;12.55;2.22;;;1.40;99.90;;;;;;5030274;28;20049;-65
2022/01/21 01:04:26;;;;;;;8.52;1.70;;;1.50;99.90;;;;;;5044220;28;20073;-64
2022/01/21 01:06:51;;;;;;;5.18;1.30;;;1.50;99.90;;;;;;5039387;28;20068;-64
2022/01/21 01:09:17;;;;;;;6.22;1.35;;;1.60;99.90;;;;;;5036899;28;20033;-65
2022/01/21 01:20:01;;;;;;;8.82;1.38;;;1.70;99.90;;;;;;5030890;28;20123;-66
2022/01/21 01:22:42;;;;;;;5.03;1.23;;;1.70;99.90;;;;;;5048474;28;20061;-66
2022/01/21 01:28:01;;;;;;;9.95;1.95;;;1.60;99.90;;;;;;5025701;28;20087;-67
2022/01/21 01:30:29;;;;;;;4.85;1.23;;;1.60;99.90;;;;;;5028379;28;20484;-65
2022/01/21 01:32:57;;;;;;;3.17;0.90;;;1.50;99.90;;;;;;5042526;28;20025;-65
2022/01/21 01:35:23;;;;;;;10.27;1.10;;;1.50;99.90;;;;;;5039517;28;20053;-66
2022/01/21 01:50:47;;;;;;;10.20;1.75;;;1.50;99.90;;;;;;5045142;28;20454;-65
2022/01/21 01:53:14;;;;;;;4.60;1.02;;;1.50;99.90;;;;;;5033269;28;20120;-65
2022/01/21 01:55:41;;;;;;;9.45;1.15;;;1.40;99.90;;;;;;5017924;28;20041;-65
2022/01/21 01:58:06;;;;;;;5.70;1.15;;;1.40;99.90;;;;;;5029692;28;20021;-65
2022/01/21 02:00:33;;;;;;;6.63;1.20;;;1.40;99.90;;;;;;5028187;28;20041;-65
2022/01/21 02:03:11;;;;;;;9.75;1.30;;;1.40;99.90;;;;;;5030460;28;20049;-65
2022/01/21 02:05:36;;;;;;;6.75;1.40;;;1.40;99.90;;;;;;5035162;28;20060;-65
2022/01/21 02:08:03;;;;;;;8.07;1.40;;;1.50;99.90;;;;;;5029256;28;20437;-65
2022/01/21 02:10:28;;;;;;;14.68;2.88;;;1.40;99.90;;;;;;5038168;28;20033;-65
2022/01/21 02:13:04;;;;;;;7.85;1.80;;;1.40;99.90;;;;;;5029641;28;20456;-65
2022/01/21 02:15:34;;;;;;;8.13;1.55;;;1.30;99.90;;;;;;5047795;28;20056;-65
2022/01/21 02:23:28;;;;;;;9.63;2.10;;;1.10;99.90;;;;;;5032715;28;20196;-65
2022/01/21 02:25:53;;;;;;;10.63;1.70;;;1.10;99.90;;;;;;5032370;28;20209;-66
2022/01/21 02:28:19;;;;;;;13.40;2.35;;;1.10;99.90;;;;;;5039626;28;20843;-64
2022/01/21 02:30:53;;;;;;;7.63;1.45;;;1.20;99.90;;;;;;5029168;28;20124;-65
2022/01/21 02:33:19;;;;;;;11.75;1.58;;;1.30;99.90;;;;;;5047764;28;20045;-64
2022/01/21 02:35:44;;;;;;;11.98;1.33;;;1.30;99.90;;;;;;5036921;28;20115;-65
2022/01/21 02:38:10;;;;;;;12.90;1.70;;;1.30;99.90;;;;;;5029684;28;20373;-66
2022/01/21 02:40:35;;;;;;;7.20;1.23;;;1.40;99.90;;;;;;5037440;28;20509;-65
2022/01/21 02:43:01;;;;;;;7.68;1.45;;;1.40;99.90;;;;;;5031608;28;20166;-66
2022/01/21 02:45:27;;;;;;;5.78;1.42;;;1.50;99.90;;;;;;5011847;28;20044;-65
2022/01/21 02:47:52;;;;;;;8.13;1.55;;;1.50;99.90;;;;;;5038521;28;20040;-65
2022/01/21 02:50:18;;;;;;;7.15;1.27;;;1.50;99.90;;;;;;5034925;28;20453;-65
2022/01/21 02:52:56;;;;;;;5.20;1.08;;;1.40;99.90;;;;;;5028067;28;20155;-65
2022/01/21 02:55:24;;;;;;;4.32;1.23;;;1.40;99.90;;;;;;5029687;28;20098;-65
2022/01/21 02:57:49;;;;;;;6.20;0.90;;;1.30;99.90;;;;;;5041482;28;20037;-66
2022/01/21 03:00:15;;;;;;;4.57;1.10;;;1.20;99.90;;;;;;5016186;28;20106;-66
2022/01/21 03:02:41;;;;;;;5.65;1.08;;;1.20;99.90;;;;;;5038786;28;20041;-65
2022/01/21 03:05:13;;;;;;;7.75;1.63;;;1.20;99.90;;;;;;5037722;28;20443;-66
2022/01/21 03:07:38;;;;;;;7.72;0.93;;;1.20;99.90;;;;;;5029559;28;20037;-66
2022/01/21 03:10:04;;;;;;;7.63;1.10;;;1.30;99.90;;;;;;5028546;28;20055;-66
2022/01/21 03:12:30;;;;;;;2.75;0.65;;;1.20;99.90;;;;;;5043006;28;20060;-65
2022/01/21 03:14:56;;;;;;;10.30;3.13;;;1.30;99.90;;;;;;5027668;28;20454;-65
2022/01/21 03:17:21;;;;;;;7.13;0.90;;;1.30;99.90;;;;;;5037223;28;20134;-70
2022/01/21 03:19:47;;;;;;;5.13;0.90;;;1.30;99.90;;;;;;5041830;28;20438;-65
2022/01/21 03:22:13;;;;;;;6.38;1.00;;;1.40;99.90;;;;;;5026651;28;20072;-65
2022/01/21 03:24:39;;;;;;;7.07;1.30;;;1.30;99.90;;;;;;5027129;28;20042;-66
2022/01/21 03:27:05;;;;;;;4.82;0.75;;;1.40;99.90;;;;;;5036691;28;20049;-65
2022/01/21 03:29:31;;;;;;;5.70;0.93;;;1.40;99.90;;;;;;5032511;28;20088;-65
2022/01/21 03:31:56;;;;;;;12.48;2.22;;;1.50;99.90;;;;;;5032506;28;20053;-65
2022/01/21 03:34:22;;;;;;;4.25;1.02;;;1.50;99.90;;;;;;5068159;28;20610;-66
2022/01/21 03:36:49;;;;;;;6.50;0.70;;;1.50;99.90;;;;;;5038873;28;20380;-65
2022/01/21 03:39:15;;;;;;;7.18;1.10;;;1.60;99.90;;;;;;5043741;28;20033;-65
2022/01/21 03:41:41;;;;;;;7.38;0.90;;;1.60;99.90;;;;;;5041200;28;20037;-65
2022/01/21 03:44:07;;;;;;;5.10;0.77;;;1.60;99.90;;;;;;5023173;28;20040;-65
2022/01/21 03:46:32;;;;;;;5.43;1.02;;;1.60;99.90;;;;;;5040367;28;20492;-65
2022/01/21 03:48:58;;;;;;;4.28;0.70;;;1.60;99.90;;;;;;5044278;28;20148;-65
2022/01/21 03:51:23;;;;;;;4.43;1.30;;;1.70;99.90;;;;;;5041270;28;20052;-65
2022/01/21 03:53:50;;;;;;;4.90;1.00;;;1.70;99.90;;;;;;5034345;28;20063;-65
2022/01/21 03:56:16;;;;;;;5.57;0.80;;;1.70;99.90;;;;;;5029102;28;20045;-66
2022/01/21 03:58:42;;;;;;;6.88;1.00;;;1.70;99.90;;;;;;5051348;28;20068;-66
2022/01/21 04:01:08;;;;;;;7.03;0.80;;;1.70;99.90;;;;;;5033129;28;20041;-65
2022/01/21 04:03:34;;;;;;;5.80;0.98;;;1.60;99.90;;;;;;5027741;28;20484;-65
2022/01/21 04:06:00;;;;;;;4.95;1.13;;;1.50;99.90;;;;;;5033234;28;20060;-65
2022/01/21 04:08:25;;;;;;;8.63;1.13;;;1.40;99.90;;;;;;5038113;28;20322;-66
2022/01/21 04:10:51;;;;;;;7.60;0.80;;;1.40;99.90;;;;;;5039652;28;20033;-65
2022/01/21 04:13:19;;;;;;;7.78;1.10;;;1.30;99.90;;;;;;5028112;28;20034;-65
2022/01/21 04:15:48;;;;;;;5.60;1.05;;;1.30;99.90;;;;;;5027047;28;20049;-65
2022/01/21 04:18:14;;;;;;;8.07;0.88;;;1.30;99.90;;;;;;5028161;28;20060;-65
2022/01/21 04:20:41;;;;;;;8.38;0.90;;;1.30;99.90;;;;;;5030182;28;20167;-65
2022/01/21 04:23:07;;;;;;;5.93;0.85;;;1.20;99.90;;;;;;5030039;28;20040;-65
2022/01/21 04:25:33;;;;;;;4.95;0.80;;;1.10;99.90;;;;;;5041107;28;20453;-65
2022/01/21 04:27:59;;;;;;;8.13;0.90;;;1.10;99.90;;;;;;5049100;28;20136;-66
2022/01/21 04:30:25;;;;;;;5.45;1.05;;;1.10;99.90;;;;;;5052766;28;20046;-66
2022/01/21 04:32:50;;;;;;;4.72;1.00;;;1.20;99.90;;;;;;5039457;28;20451;-65
2022/01/21 04:35:16;;;;;;;6.07;1.23;;;1.20;99.90;;;;;;5030631;28;20056;-65
2022/01/21 04:37:50;;;;;;;8.65;0.80;;;1.30;99.90;;;;;;5030215;28;20450;-65
2022/01/21 04:40:18;;;;;;;4.25;0.70;;;1.30;99.90;;;;;;5046803;28;20055;-65
2022/01/21 04:48:12;;;;;;;10.63;1.70;;;1.40;99.90;;;;;;5029816;28;20060;-64
2022/01/21 04:53:39;;;;;;;5.40;0.70;;;1.20;99.90;;;;;;5009550;28;20052;-65
2022/01/21 04:56:05;;;;;;;2.42;0.80;;;1.10;99.90;;;;;;5037188;28;20437;-67
2022/01/21 04:58:31;;;;;;;6.28;0.98;;;1.10;99.90;;;;;;5046873;28;20029;-66
2022/01/21 05:00:56;;;;;;;7.38;1.23;;;1.00;99.90;;;;;;5019514;28;20037;-66
2022/01/21 05:03:22;;;;;;;4.00;0.90;;;1.00;99.90;;;;;;5030545;28;20033;-65
2022/01/21 05:05:48;;;;;;;3.25;0.60;;;0.90;99.90;;;;;;5032250;28;20476;-65
2022/01/21 05:08:28;;;;;;;7.82;1.10;;;0.90;99.90;;;;;;5029690;28;20115;-65
2022/01/21 05:10:54;;;;;;;12.55;1.35;;;0.90;99.90;;;;;;5032122;28;20041;-65
2022/01/21 05:13:24;;;;;;;5.47;1.23;;;0.90;99.90;;;;;;5030928;28;20450;-65
2022/01/21 05:16:03;;;;;;;4.47;1.00;;;0.80;99.90;;;;;;5035003;28;20056;-66
2022/01/21 05:18:29;;;;;;;3.58;0.90;;;0.80;99.90;;;;;;5036587;28;20453;-65
2022/01/21 05:20:56;;;;;;;5.22;0.70;;;0.90;99.90;;;;;;5038658;28;20061;-65
2022/01/21 05:23:22;;;;;;;3.55;0.80;;;0.90;99.90;;;;;;5062444;28;20051;-65
2022/01/21 05:25:49;;;;;;;8.18;1.15;;;0.90;99.90;;;;;;5029648;28;20045;-65
2022/01/21 05:28:15;;;;;;;10.85;1.30;;;0.90;99.90;;;;;;5045723;28;20277;-65
2022/01/21 05:30:40;;;;;;;5.88;0.98;;;1.00;99.90;;;;;;5046451;28;20124;-65
2022/01/21 05:33:06;;;;;;;6.53;1.20;;;1.00;99.90;;;;;;5044773;28;20529;-65
2022/01/21 05:35:31;;;;;;;7.22;1.33;;;0.90;99.90;;;;;;5035718;28;20069;-65
2022/01/21 05:37:57;;;;;;;7.38;1.27;;;1.00;99.90;;;;;;5039433;28;20033;-65
2022/01/21 05:40:24;;;;;;;9.63;1.45;;;1.10;99.90;;;;;;5038394;28;20036;-65
2022/01/21 05:42:50;;;;;;;9.75;1.40;;;1.10;99.90;;;;;;5029924;28;20485;-65
2022/01/21 05:47:59;;;;;;;5.90;1.20;;;1.10;99.90;;;;;;5041362;28;20059;-65
2022/01/21 05:50:25;;;;;;;5.95;1.15;;;1.00;99.90;;;;;;5040913;28;20037;-64
2022/01/21 05:52:50;;;;;;;9.20;1.70;;;0.90;99.90;;;;;;5021151;28;20039;-64
2022/01/21 05:55:17;;;;;;;10.65;1.65;;;0.90;99.90;;;;;;5037386;28;20045;-65
2022/01/21 05:57:43;;;;;;;6.38;1.77;;;0.90;99.90;;;;;;5037954;28;20523;-65
2022/01/21 06:00:10;;;;;;;6.47;1.40;;;0.90;99.90;;;;;;5036239;28;20491;-65
2022/01/21 06:02:37;;;;;;;6.15;1.35;;;0.90;99.90;;;;;;5041743;28;20041;-65
2022/01/21 06:05:04;;;;;;;8.52;1.30;;;0.90;99.90;;;;;;5037012;28;20036;-65
2022/01/21 06:07:30;;;;;;;5.82;1.45;;;0.90;99.90;;;;;;5028639;28;20049;-64
2022/01/21 06:09:55;;;;;;;7.30;1.20;;;0.80;99.90;;;;;;5028665;28;20061;-64
2022/01/21 06:12:21;;;;;;;11.95;1.48;;;0.80;99.90;;;;;;5029136;28;20056;-64
2022/01/21 06:14:47;;;;;;;8.70;1.10;;;0.80;99.90;;;;;;5029797;28;20041;-64
2022/01/21 06:17:13;;;;;;;7.43;1.40;;;0.90;99.90;;;;;;5031438;28;20040;-65
2022/01/21 06:19:39;;;;;;;4.80;1.27;;;0.90;99.90;;;;;;5047899;28;20086;-65
2022/01/21 06:22:05;;;;;;;10.02;1.30;;;1.00;99.90;;;;;;5042661;28;20049;-65
2022/01/21 06:24:30;;;;;;;8.07;1.50;;;1.00;99.90;;;;;;5034992;28;20049;-65
2022/01/21 06:27:00;;;;;;;5.97;1.10;;;1.00;99.90;;;;;;5027660;28;20060;-65
2022/01/21 06:29:26;;;;;;;5.25;1.23;;;1.00;99.90;;;;;;5040070;28;20358;-65
2022/01/21 06:31:51;;;;;;;8.60;1.45;;;1.10;99.90;;;;;;5011324;28;20057;-65
2022/01/21 06:34:17;;;;;;;9.73;1.20;;;1.10;99.90;;;;;;5027598;28;20037;-65
2022/01/21 06:36:43;;;;;;;9.60;1.40;;;1.20;99.90;;;;;;5026888;28;20048;-65
2022/01/21 06:39:08;;;;;;;9.73;1.70;;;1.30;99.90;;;;;;5038418;28;20037;-65
2022/01/21 06:41:34;;;;;;;7.45;1.67;;;1.20;99.90;;;;;;5043590;28;20052;-65
2022/01/21 06:44:01;;;;;;;12.60;1.63;;;1.30;99.90;;;;;;5043971;28;20032;-65
2022/01/21 06:46:26;;;;;;;6.38;1.27;;;1.30;99.90;;;;;;5037833;28;20568;-65
2022/01/21 06:48:52;;;;;;;8.02;1.30;;;1.30;99.90;;;;;;5026952;28;20132;-65
2022/01/21 06:51:17;;;;;;;6.22;1.30;;;1.30;99.90;;;;;;5027372;28;20891;-65
2022/01/21 06:53:43;;;;;;;11.43;1.73;;;1.30;99.90;;;;;;5044262;28;20431;-65
2022/01/21 06:56:08;;;;;;;9.57;1.55;;;1.20;99.90;;;;;;5032440;28;20448;-65
2022/01/21 06:58:34;;;;;;;9.32;1.33;;;1.10;99.90;;;;;;5030588;28;20053;-65
2022/01/21 07:01:00;;;;;;;7.95;1.33;;;1.10;99.90;;;;;;5028737;28;20033;-65
2022/01/21 07:03:25;;;;;;;8.60;1.83;;;1.10;99.90;;;;;;5036396;28;20083;-65
2022/01/21 07:05:51;;;;;;;13.88;1.95;;;1.00;99.90;;;;;;5038023;28;20045;-65
2022/01/21 07:08:17;;;;;;;8.48;2.03;;;1.10;99.90;;;;;;5033636;28;20095;-65
2022/01/21 07:10:43;;;;;;;5.25;1.40;;;1.10;99.90;;;;;;5040773;28;20041;-65
2022/01/21 07:13:10;;;;;;;7.80;1.35;;;1.10;99.90;;;;;;5039459;28;20039;-65
2022/01/21 07:15:35;;;;;;;8.77;2.17;;;1.10;99.90;;;;;;5034552;28;20048;-65
2022/01/21 07:18:02;;;;;;;8.68;1.40;;;1.10;99.90;;;;;;5028290;28;20058;-65
2022/01/21 07:20:28;;;;;;;4.38;1.38;;;1.10;99.90;;;;;;5027172;28;20034;-65
2022/01/21 07:22:53;;;;;;;10.77;1.80;;;1.00;99.90;;;;;;5044336;28;20111;-66
2022/01/21 07:25:19;;;;;;;9.95;1.77;;;1.10;99.90;;;;;;5034918;28;20072;-65
2022/01/21 07:27:45;;;;;;;10.15;1.63;;;1.10;99.90;;;;;;5034142;28;20128;-65
2022/01/21 07:30:12;;;;;;;14.82;2.30;;;1.10;99.90;;;;;;5033281;28;20071;-65
2022/01/21 07:32:39;;;;;;;9.98;2.03;;;1.10;99.90;;;;;;5037063;28;20134;-65
2022/01/21 07:35:07;;;;;;;12.50;2.90;;;1.00;99.90;;;;;;5041974;28;20103;-65
2022/01/21 07:37:32;;;;;;;10.73;4.25;;;0.90;99.90;;;;;;5034174;28;20077;-65
2022/01/21 07:39:58;;;;;;;9.38;2.53;;;0.90;99.90;;;;;;5040664;28;20065;-65
2022/01/21 07:42:24;;;;;;;12.00;2.45;;;0.90;99.90;;;;;;5039958;28;20113;-66
2022/01/21 07:44:49;;;;;;;9.45;1.80;;;1.00;99.90;;;;;;5028955;28;20191;-64
2022/01/21 07:47:15;;;;;;;22.33;5.55;;;1.00;99.90;;;;;;5040930;28;20057;-64
2022/01/21 07:49:42;;;;;;;13.73;3.90;;;1.00;99.90;;;;;;5031821;28;20045;-64
2022/01/21 07:52:08;;;;;;;20.08;3.90;;;1.00;99.90;;;;;;5040652;28;20159;-64
2022/01/21 07:54:34;;;;;;;10.82;3.80;;;1.00;99.90;;;;;;5039473;28;20089;-65
2022/01/21 07:57:02;;;;;;;10.32;4.43;;;1.00;99.90;;;;;;5034288;28;20445;-64
2022/01/21 07:59:28;;;;;;;15.98;7.05;;;1.00;99.90;;;;;;5047341;28;20079;-65
2022/01/21 08:01:53;;;;;;;14.75;4.57;;;1.00;99.90;;;;;;5035581;28;20061;-64
2022/01/21 08:04:19;;;;;;;18.75;7.03;;;1.00;99.90;;;;;;5031340;28;20056;-64
2022/01/21 08:06:44;;;;;;;14.32;5.72;;;1.00;99.90;;;;;;5032229;28;20041;-64
2022/01/21 08:09:10;;;;;;;15.23;4.80;;;1.00;99.90;;;;;;5030982;28;20450;-64
2022/01/21 08:11:36;;;;;;;14.48;5.90;;;1.00;99.90;;;;;;5039341;28;20391;-65
2022/01/21 08:14:02;;;;;;;11.48;3.70;;;1.00;99.90;;;;;;5049639;28;20106;-65
2022/01/21 08:16:27;;;;;;;12.23;3.25;;;1.00;99.90;;;;;;5050356;28;20036;-64
2022/01/21 08:18:54;;;;;;;10.50;2.53;;;1.10;99.90;;;;;;5050481;28;20122;-64
2022/01/21 08:21:20;;;;;;;9.27;2.92;;;1.10;99.90;;;;;;5051332;28;20087;-65
2022/01/21 08:23:51;;;;;;;14.20;1.95;;;1.10;99.90;;;;;;5049892;28;20041;-65
2022/01/21 08:26:21;;;;;;;5.32;1.63;;;1.10;99.90;;;;;;5030688;28;20121;-65
2022/01/21 08:28:47;;;;;;;10.10;3.08;;;1.20;99.90;;;;;;5029952;28;20069;-65
2022/01/21 08:31:13;;;;;;;10.45;1.70;;;1.20;99.90;;;;;;5063567;28;20467;-65
2022/01/21 08:33:38;;;;;;;10.00;2.17;;;1.20;99.90;;;;;;5069553;28;20135;-65
2022/01/21 08:36:07;;;;;;;8.93;1.75;;;1.20;99.90;;;;;;5048479;28;20381;-65
2022/01/21 08:38:33;;;;;;;11.18;1.80;;;1.30;99.90;;;;;;5048587;28;20036;-65
2022/01/21 08:40:59;;;;;;;11.82;2.05;;;1.40;99.90;;;;;;5046544;28;20377;-65
2022/01/21 08:43:25;;;;;;;8.00;2.10;;;1.50;99.90;;;;;;5049725;28;20116;-65
2022/01/21 08:45:50;;;;;;;9.63;2.50;;;1.70;99.90;;;;;;5050540;28;20040;-65
2022/01/21 08:48:16;;;;;;;12.27;3.15;;;1.70;99.90;;;;;;5048559;28;20044;-64
2022/01/21 08:50:42;;;;;;;11.18;2.30;;;1.80;99.90;;;;;;5049344;28;20376;-64
2022/01/21 08:53:35;;;;;;;11.90;3.10;;;1.90;99.90;;;;;;5050456;28;20048;-65
2022/01/21 08:55:53;;;;;;;11.27;2.47;;;1.90;99.90;;;;;;5037112;28;20156;-65
2022/01/21 08:58:18;;;;;;;15.85;2.55;;;2.10;99.90;;;;;;5048627;28;20057;-64
2022/01/21 09:00:44;;;;;;;5.97;1.90;;;2.10;99.90;;;;;;5030949;28;20057;-65
2022/01/21 09:03:09;;;;;;;10.88;2.25;;;2.20;99.90;;;;;;5031592;28;20037;-64
2022/01/21 09:05:35;;;;;;;7.78;2.30;;;2.30;99.90;;;;;;5045716;28;20045;-64
2022/01/21 09:08:01;;;;;;;8.23;2.10;;;2.40;99.90;;;;;;5039389;28;20427;-65
2022/01/21 09:10:26;;;;;;;15.93;2.20;;;2.40;99.90;;;;;;5050497;28;20351;-66
2022/01/21 09:12:52;;;;;;;8.05;1.80;;;2.50;99.90;;;;;;5049005;28;20033;-65
2022/01/21 09:15:23;;;;;;;13.65;2.38;;;2.60;99.90;;;;;;5048737;28;20048;-64
2022/01/21 09:17:49;;;;;;;9.65;1.90;;;2.60;99.90;;;;;;5049319;28;20060;-64
2022/01/21 09:20:15;;;;;;;9.40;2.20;;;2.60;99.90;;;;;;5049320;28;20044;-65
2022/01/21 09:22:41;;;;;;;17.85;1.95;;;2.70;99.90;;;;;;5032489;28;20476;-66
2022/01/21 09:25:08;;;;;;;12.93;2.20;;;2.70;99.90;;;;;;5032785;28;20069;-65
2022/01/21 09:27:34;;;;;;;10.00;2.20;;;2.70;99.90;;;;;;5034140;28;20036;-66
2022/01/21 09:29:59;;;;;;;12.73;2.78;;;2.80;99.90;;;;;;5044388;28;20452;-64
2022/01/21 09:32:25;;;;;;;13.75;2.90;;;2.80;99.90;;;;;;5044552;28;20135;-65
2022/01/21 09:34:51;;;;;;;13.65;3.20;;;2.80;99.90;;;;;;5041965;28;20041;-65
2022/01/21 09:37:16;;;;;;;14.88;3.40;;;2.80;99.90;;;;;;5046696;28;20481;-65
2022/01/21 09:39:43;;;;;;;10.48;2.67;;;2.80;99.90;;;;;;5030345;28;20480;-65
2022/01/21 09:42:13;;;;;;;11.88;2.45;;;2.80;99.90;;;;;;5046791;28;20052;-66
2022/01/21 09:44:40;;;;;;;15.25;2.17;;;2.80;99.90;;;;;;5046862;28;20036;-65
2022/01/21 09:47:06;;;;;;;8.55;2.40;;;2.80;99.90;;;;;;5032826;28;20111;-66
2022/01/21 09:49:34;;;;;;;12.30;2.08;;;2.90;99.90;;;;;;5029273;28;20037;-66
2022/01/21 09:52:06;;;;;;;12.70;2.22;;;2.90;99.90;;;;;;5033666;28;20384;-65
2022/01/21 09:54:37;;;;;;;8.80;2.15;;;2.90;99.90;;;;;;5046007;28;20381;-65
2022/01/21 09:57:05;;;;;;;12.43;2.85;;;2.90;99.90;;;;;;5039934;28;20523;-65
2022/01/21 09:59:34;;;;;;;13.23;2.70;;;3.00;99.90;;;;;;5049007;28;20099;-65
2022/01/21 10:02:06;;;;;;;10.38;2.33;;;3.00;99.90;;;;;;5037758;28;20064;-65
2022/01/21 10:04:37;;;;;;;14.43;2.35;;;3.10;99.90;;;;;;5035366;28;20040;-65
2022/01/21 10:07:04;;;;;;;15.57;2.67;;;3.10;99.90;;;;;;5028762;28;20537;-65
2022/01/21 10:09:30;;;;;;;11.77;2.38;;;3.20;99.90;;;;;;5029033;28;20083;-65
2022/01/21 10:11:57;;;;;;;15.45;2.80;;;3.20;99.90;;;;;;5028787;28;20115;-65
2022/01/21 10:14:26;;;;;;;13.32;2.30;;;3.30;99.90;;;;;;5029600;28;20034;-66
2022/01/21 10:16:52;;;;;;;13.02;2.58;;;3.30;99.90;;;;;;5031750;28;20139;-65
2022/01/21 10:19:48;;;;;;;12.25;2.53;;;3.40;99.90;;;;;;5030128;28;20393;-66
2022/01/21 10:22:18;;;;;;;13.07;2.75;;;3.50;99.90;;;;;;5028084;28;20057;-65
2022/01/21 10:25:06;;;;;;;17.90;2.28;;;3.60;99.90;;;;;;5033178;28;20063;-65
2022/01/21 10:27:40;;;;;;;11.60;2.45;;;3.70;99.90;;;;;;5027600;28;20446;-65
2022/01/21 10:30:25;;;;;;;12.93;2.75;;;3.70;99.90;;;;;;5027235;28;20410;-66
2022/01/21 10:32:51;;;;;;;14.05;3.00;;;3.80;99.90;;;;;;5048015;28;20037;-65
2022/01/21 10:35:26;;;;;;;13.27;3.42;;;3.80;99.90;;;;;;5047917;28;20091;-65
2022/01/21 10:37:52;;;;;;;12.43;2.30;;;3.80;99.90;;;;;;5027638;28;20081;-65
2022/01/21 10:40:21;;;;;;;10.88;2.40;;;3.90;99.90;;;;;;5031262;28;20030;-66
2022/01/21 10:42:48;;;;;;;11.65;2.55;;;3.90;99.90;;;;;;5029129;28;20037;-65
2022/01/21 10:45:14;;;;;;;14.18;2.83;;;3.90;99.90;;;;;;5011937;28;20393;-65
2022/01/21 10:47:48;;;;;;;13.27;2.63;;;4.00;99.90;;;;;;5011621;28;20052;-65
2022/01/21 10:50:15;;;;;;;11.18;2.53;;;3.90;99.90;;;;;;5013176;28;20095;-66
2022/01/21 10:52:51;;;;;;;10.80;2.42;;;3.90;99.90;;;;;;5045594;28;20041;-65
2022/01/21 10:55:36;;;;;;;9.63;1.98;;;4.00;99.90;;;;;;5032234;28;20037;-67
2022/01/21 10:58:10;;;;;;;14.43;2.08;;;4.00;99.90;;;;;;5047411;28;20045;-65
2022/01/21 11:00:37;;;;;;;11.50;2.67;;;4.00;99.90;;;;;;5040347;28;20397;-65
2022/01/21 11:03:14;;;;;;;14.82;2.10;;;4.10;99.90;;;;;;5030986;28;20128;-65
2022/01/21 11:05:44;;;;;;;10.75;1.90;;;4.10;99.90;;;;;;5036378;28;20477;-65
2022/01/21 11:08:11;;;;;;;;;;;4.20;99.90;;;;;;5047657;28;20102;-65
2022/01/21 11:10:48;;;;;;;12.23;2.13;;;4.20;99.90;;;;;;5045209;28;20287;-65
2022/01/21 11:13:16;;;;;;;7.30;2.35;;;4.20;99.90;;;;;;5037815;28;20063;-65
2022/01/21 11:15:43;;;;;;;15.98;2.75;;;4.40;99.90;;;;;;5041989;28;20037;-66
2022/01/21 11:18:13;;;;;;;10.75;2.13;;;4.40;99.90;;;;;;5011005;28;20500;-65
2022/01/21 11:20:41;;;;;;;11.77;2.28;;;4.40;99.90;;;;;;5035781;28;20091;-64
2022/01/21 11:23:11;;;;;;;11.02;3.17;;;4.40;99.90;;;;;;5046920;28;20468;-64
2022/01/21 11:25:43;;;;;;;14.00;3.33;;;4.40;99.90;;;;;;5031113;28;20366;-64
2022/01/21 11:28:10;;;;;;;13.80;3.20;;;4.40;99.90;;;;;;5030145;28;20452;-66
2022/01/21 11:30:35;;;;;;;20.05;3.53;;;4.50;99.90;;;;;;5041677;28;20401;-66
2022/01/21 11:33:01;;;;;;;14.57;2.60;;;4.60;99.90;;;;;;5045465;28;20123;-66
2022/01/21 11:35:28;;;;;;;12.77;3.15;;;4.60;99.90;;;;;;5041629;28;20123;-65
2022/01/21 11:37:54;;;;;;;13.73;2.60;;;4.80;99.90;;;;;;5039323;28;20350;-64
2022/01/21 11:40:22;;;;;;;14.05;3.00;;;5.00;99.90;;;;;;5048456;28;20075;-64
2022/01/21 11:42:49;;;;;;;11.60;2.83;;;5.10;99.90;;;;;;5039649;28;20041;-65
2022/01/21 11:48:49;;;;;;;12.05;2.92;;;5.20;99.90;;;;;;5045452;28;20037;-65
2022/01/21 11:50:48;;;;;;;25.05;3.65;;;5.30;99.90;;;;;;5043772;28;20049;-66
2022/01/21 11:53:15;;;;;;;15.38;3.13;;;5.40;99.90;;;;;;5051580;28;20043;-65
2022/01/21 11:55:47;;;;;;;13.93;2.63;;;5.40;99.90;;;;;;5051701;28;20049;-65
2022/01/21 11:58:21;;;;;;;21.67;3.20;;;5.60;99.90;;;;;;5047939;28;20075;-65
2022/01/21 12:00:49;;;;;;;13.10;2.40;;;5.60;99.90;;;;;;5048348;28;20468;-65
2022/01/21 12:03:16;;;;;;;14.73;2.63;;;5.60;99.90;;;;;;5030886;28;20136;-66
2022/01/21 12:05:42;;;;;;;14.73;3.30;;;5.60;99.90;;;;;;5030943;28;20128;-65
2022/01/21 12:08:07;;;;;;;12.43;2.40;;;5.60;99.90;;;;;;5031474;28;20113;-65
2022/01/21 12:10:34;;;;;;;19.15;3.20;;;5.70;99.90;;;;;;5031549;28;20037;-65
2022/01/21 12:13:20;;;;;;;12.10;2.80;;;5.70;99.90;;;;;;5030479;28;20049;-65
2022/01/21 12:21:22;;;;;;;11.25;2.40;;;5.80;99.90;;;;;;5035530;28;20136;-68
2022/01/21 12:23:48;;;;;;;11.93;2.35;;;5.80;99.90;;;;;;5042004;28;20087;-65
2022/01/21 12:26:24;;;;;;;12.45;2.85;;;5.80;99.90;;;;;;5034293;28;20037;-65
2022/01/21 12:28:57;;;;;;;16.42;2.97;;;5.90;99.90;;;;;;5012248;28;20160;-67
2022/01/21 12:31:25;;;;;;;18.00;2.67;;;5.90;99.90;;;;;;5037789;28;20049;-65
2022/01/21 12:33:56;;;;;;;14.18;2.60;;;6.00;99.90;;;;;;5041408;28;20060;-65
2022/01/21 12:36:35;;;;;;;14.02;2.28;;;6.00;99.90;;;;;;5050832;28;20064;-65
2022/01/21 12:39:24;;;;;;;12.63;2.55;;;6.00;99.90;;;;;;5048898;28;20052;-66
2022/01/21 12:41:49;;;;;;;13.73;2.25;;;6.10;99.90;;;;;;5033121;28;20385;-65
2022/01/21 12:44:30;;;;;;;14.90;2.30;;;6.00;99.90;;;;;;5048460;28;20053;-65
2022/01/21 12:46:56;;;;;;;11.35;1.65;;;6.00;99.90;;;;;;5045211;28;20037;-65
2022/01/21 12:49:31;;;;;;;10.38;1.95;;;5.90;99.90;;;;;;5031679;28;20037;-66
2022/01/21 12:57:09;;;;;;;8.48;1.70;;;6.00;99.90;;;;;;5050103;28;20055;-66
2022/01/21 12:59:35;;;;;;;10.70;1.83;;;6.00;99.90;;;;;;5050080;28;20041;-65
2022/01/21 13:02:05;;;;;;;6.50;1.40;;;5.90;99.90;;;;;;5049120;28;20029;-65
2022/01/21 13:05:11;;;;;;;8.60;1.52;;;5.90;99.90;;;;;;5046054;28;20037;-65
2022/01/21 13:07:56;;;;;;;7.60;1.65;;;5.90;99.90;;;;;;5029409;28;20459;-66
2022/01/21 13:10:26;;;;;;;12.25;1.58;;;5.90;99.90;;;;;;5022316;28;20061;-66
2022/01/21 13:15:24;;;;;;;10.45;2.50;;;5.90;99.90;;;;;;5047650;28;20084;-64
2022/01/21 13:17:59;;;;;;;8.20;1.60;;;5.90;99.90;;;;;;5038805;28;20083;-64
2022/01/21 13:20:30;;;;;;;8.20;1.20;;;5.90;99.90;;;;;;5049383;28;20072;-65
2022/01/21 13:22:55;;;;;;;8.32;1.23;;;6.00;99.90;;;;;;5049006;28;20053;-65
2022/01/21 13:25:22;;;;;;;12.75;2.13;;;6.00;99.90;;;;;;5050365;28;20408;-66
2022/01/21 13:27:53;;;;;;;14.82;2.17;;;6.00;99.90;;;;;;5037312;28;20119;-64
2022/01/21 13:30:22;;;;;;;10.90;1.45;;;6.00;99.90;;;;;;5029987;28;20132;-65
2022/01/21 13:32:56;;;;;;;10.18;1.52;;;6.00;99.90;;;;;;5029703;28;20045;-65
2022/01/21 13:35:25;;;;;;;8.52;2.13;;;6.00;99.90;;;;;;5040278;28;20041;-64
2022/01/21 13:38:08;;;;;;;13.18;1.77;;;6.10;99.90;;;;;;5048973;28;20048;-64
2022/01/21 13:40:37;;;;;;;7.72;1.67;;;6.10;99.90;;;;;;5051636;28;20053;-66
2022/01/21 13:43:22;;;;;;;12.82;2.10;;;6.10;99.90;;;;;;5032617;28;20045;-64
2022/01/21 13:46:00;;;;;;;8.65;1.63;;;6.10;99.90;;;;;;5033515;28;20084;-64
2022/01/21 13:48:29;;;;;;;8.85;1.58;;;6.20;99.90;;;;;;5018421;28;20043;-64
2022/01/21 13:50:55;;;;;;;8.95;1.33;;;6.20;99.90;;;;;;5047714;28;20072;-65
2022/01/21 13:53:23;;;;;;;10.20;1.50;;;6.20;99.90;;;;;;5049939;28;20037;-64
2022/01/21 13:55:54;;;;;;;11.05;1.80;;;6.20;99.90;;;;;;5031415;28;20061;-65
2022/01/21 13:58:26;;;;;;;15.55;2.10;;;6.20;99.90;;;;;;5061893;28;20046;-64
2022/01/21 14:01:07;;;;;;;14.25;2.42;;;6.20;99.90;;;;;;5045734;28;20132;-65
2022/01/21 14:03:38;;;;;;;11.95;2.45;;;6.20;99.90;;;;;;5029274;28;20033;-64
2022/01/21 14:06:08;;;;;;;13.95;2.25;;;6.10;99.90;;;;;;5028251;28;20049;-64
2022/01/21 14:08:42;;;;;;;14.82;1.95;;;6.10;99.90;;;;;;5029076;28;20599;-64